createdAt,value
2018-08-19T00:00:36.727Z,0.98
2018-08-19T00:03:05.351Z,0.70
2018-08-19T00:05:34.036Z,1.00
2018-08-19T00:08:02.604Z,1.30
2018-08-19T00:10:42.834Z,1.10
2018-08-19T00:13:12.833Z,1.17
2018-08-19T00:15:42.054Z,1.17
2018-08-19T00:18:12.232Z,0.80
2018-08-19T00:20:40.907Z,1.20
2018-08-19T00:23:09.942Z,1.00
2018-08-19T00:25:41.672Z,1.03
2018-08-19T00:28:11.927Z,0.97
2018-08-19T00:30:40.549Z,1.07
2018-08-19T00:33:09.638Z,0.80
2018-08-19T00:35:38.314Z,1.13
2018-08-19T00:38:10.067Z,0.97
2018-08-19T00:40:39.184Z,1.10
2018-08-19T00:43:07.871Z,1.00
2018-08-19T00:45:36.655Z,1.23
2018-08-19T00:48:05.241Z,1.00
2018-08-19T00:50:33.820Z,0.90
2018-08-19T00:53:02.511Z,1.30
2018-08-19T00:55:38.596Z,1.23
2018-08-19T00:58:14.377Z,1.20
2018-08-19T01:00:43.175Z,1.10
2018-08-19T01:03:12.198Z,0.90
2018-08-19T01:05:41.023Z,1.30
2018-08-19T01:08:11.188Z,1.30
2018-08-19T01:10:40.255Z,1.27
2018-08-19T01:13:09.559Z,1.57
2018-08-19T01:15:38.101Z,1.13
2018-08-19T01:18:06.833Z,1.47
2018-08-19T01:20:35.555Z,1.30
2018-08-19T01:23:04.190Z,1.13
2018-08-19T01:25:32.957Z,1.27
2018-08-19T01:28:01.614Z,1.37
2018-08-19T01:30:30.875Z,1.93
2018-08-19T01:32:59.447Z,1.60
2018-08-19T01:35:33.304Z,1.35
2018-08-19T01:38:01.926Z,1.50
2018-08-19T01:40:30.478Z,1.60
2018-08-19T01:42:59.153Z,1.47
2018-08-19T01:45:27.734Z,1.90
2018-08-19T01:47:56.266Z,1.70
2018-08-19T01:50:24.782Z,1.50
2018-08-19T01:52:53.299Z,1.73
2018-08-19T01:55:21.964Z,1.33
2018-08-19T01:57:51.041Z,1.85
2018-08-19T02:00:19.881Z,1.73
2018-08-19T02:02:59.338Z,1.70
2018-08-19T02:05:28.278Z,1.43
2018-08-19T02:07:59.071Z,1.60
2018-08-19T02:10:28.487Z,1.70
2018-08-19T02:12:57.818Z,1.60
2018-08-19T02:15:28.078Z,1.30
2018-08-19T02:17:56.721Z,1.43
2018-08-19T02:20:30.344Z,1.60
2018-08-19T02:23:01.155Z,1.60
2018-08-19T02:25:37.622Z,1.73
2018-08-19T02:28:07.622Z,1.47
2018-08-19T02:30:41.142Z,1.43
2018-08-19T02:33:10.132Z,1.43
2018-08-19T02:35:38.712Z,1.50
2018-08-19T02:38:07.504Z,1.22
2018-08-19T02:40:36.003Z,1.57
2018-08-19T02:43:04.670Z,1.33
2018-08-19T02:45:33.356Z,1.17
2018-08-19T02:48:02.064Z,1.50
2018-08-19T02:50:30.619Z,1.90
2018-08-19T02:52:59.202Z,1.63
2018-08-19T02:55:27.734Z,1.53
2018-08-19T02:58:01.508Z,1.27
2018-08-19T03:00:30.084Z,1.43
2018-08-19T03:02:58.702Z,1.80
2018-08-19T03:05:27.267Z,1.90
2018-08-19T03:07:55.921Z,1.73
2018-08-19T03:10:24.458Z,1.27
2018-08-19T03:12:52.968Z,1.52
2018-08-19T03:15:21.671Z,1.80
2018-08-19T03:17:50.211Z,1.60
2018-08-19T03:20:18.922Z,1.83
2018-08-19T03:22:47.467Z,1.60
2018-08-19T03:25:16.209Z,2.00
2018-08-19T03:27:44.789Z,1.47
2018-08-19T03:30:15.319Z,1.50
2018-08-19T03:32:49.915Z,1.47
2018-08-19T03:35:20.808Z,1.60
2018-08-19T03:37:53.005Z,1.70
2018-08-19T03:40:23.835Z,1.40
2018-08-19T03:42:53.183Z,1.63
2018-08-19T03:45:22.462Z,1.70
2018-08-19T03:47:52.350Z,1.70
2018-08-19T03:50:22.975Z,1.53
2018-08-19T03:52:52.633Z,1.80
2018-08-19T03:55:26.324Z,1.53
2018-08-19T03:57:58.723Z,1.50
2018-08-19T04:00:28.635Z,1.50
2018-08-19T04:02:57.262Z,1.07
2018-08-19T04:05:42.076Z,1.60
2018-08-19T04:08:11.998Z,2.43
2018-08-19T04:10:41.950Z,1.22
2018-08-19T04:13:40.793Z,1.67
2018-08-19T04:16:10.770Z,1.40
2018-08-19T04:18:45.820Z,1.33
2018-08-19T04:21:16.574Z,2.13
2018-08-19T04:23:47.551Z,1.60
2018-08-19T04:26:16.710Z,2.00
2018-08-19T04:28:46.552Z,1.57
2018-08-19T04:31:20.327Z,1.47
2018-08-19T04:33:49.728Z,1.70
2018-08-19T04:36:19.848Z,1.22
2018-08-19T04:38:49.051Z,1.00
2018-08-19T04:41:17.937Z,1.80
2018-08-19T04:43:47.367Z,1.50
2018-08-19T04:46:16.025Z,1.30
2018-08-19T04:48:46.307Z,2.10
2018-08-19T04:51:15.148Z,1.20
2018-08-19T04:53:43.645Z,1.40
2018-08-19T04:56:12.302Z,2.23
2018-08-19T04:58:40.989Z,1.70
2018-08-19T05:01:09.671Z,1.60
2018-08-19T05:03:38.242Z,1.55
2018-08-19T05:06:06.939Z,1.40
2018-08-19T05:08:35.511Z,1.53
2018-08-19T05:11:04.085Z,1.40
2018-08-19T05:13:33.305Z,1.47
2018-08-19T05:16:01.884Z,1.52
2018-08-19T05:18:30.570Z,1.72
2018-08-19T05:21:06.275Z,1.40
2018-08-19T05:23:34.822Z,1.40
2018-08-19T05:26:03.662Z,1.62
2018-08-19T05:28:32.445Z,1.30
2018-08-19T05:31:00.975Z,1.22
2018-08-19T05:33:29.563Z,0.93
2018-08-19T05:35:58.227Z,1.57
2018-08-19T05:38:27.731Z,1.80
2018-08-19T05:41:00.342Z,1.30
2018-08-19T05:43:29.662Z,1.20
2018-08-19T05:46:00.298Z,1.67
2018-08-19T05:48:28.979Z,1.30
2018-08-19T05:50:58.224Z,1.75
2018-08-19T05:53:26.909Z,1.70
2018-08-19T05:55:55.443Z,1.35
2018-08-19T05:58:24.076Z,1.50
2018-08-19T06:00:59.541Z,1.42
2018-08-19T06:03:28.481Z,1.50
2018-08-19T06:05:57.406Z,1.35
2018-08-19T06:08:25.950Z,1.70
2018-08-19T06:10:54.487Z,1.40
2018-08-19T06:13:23.050Z,1.47
2018-08-19T06:15:51.588Z,1.90
2018-08-19T06:18:20.202Z,1.55
2018-08-19T06:20:49.462Z,1.40
2018-08-19T06:23:18.100Z,1.80
2018-08-19T06:25:46.764Z,1.57
2018-08-19T06:28:15.463Z,0.90
2018-08-19T06:30:44.039Z,1.67
2018-08-19T06:33:12.836Z,1.17
2018-08-19T06:35:41.541Z,1.65
2018-08-19T06:38:11.974Z,1.62
2018-08-19T06:40:40.594Z,1.60
2018-08-19T06:43:09.272Z,1.57
2018-08-19T06:45:37.871Z,1.50
2018-08-19T06:48:06.484Z,1.30
2018-08-19T06:50:35.852Z,1.45
2018-08-19T06:53:04.382Z,1.67
2018-08-19T06:55:33.053Z,1.45
2018-08-19T06:58:01.738Z,1.52
2018-08-19T07:00:32.408Z,1.98
2018-08-19T07:03:03.425Z,1.75
2018-08-19T07:05:33.062Z,1.70
2018-08-19T07:08:02.009Z,1.65
2018-08-19T07:10:38.250Z,1.85
2018-08-19T07:13:14.331Z,1.52
2018-08-19T07:15:44.039Z,1.55
2018-08-19T07:18:15.545Z,1.47
2018-08-19T07:20:44.947Z,1.67
2018-08-19T07:23:13.844Z,2.00
2018-08-19T07:25:43.744Z,1.50
2018-08-19T07:28:13.558Z,1.60
2018-08-19T07:30:42.544Z,1.30
2018-08-19T07:33:11.778Z,1.30
2018-08-19T07:35:40.547Z,1.30
2018-08-19T07:38:09.091Z,1.47
2018-08-19T07:40:37.957Z,1.82
2018-08-19T07:43:06.848Z,1.47
2018-08-19T07:45:36.248Z,1.20
2018-08-19T07:48:05.204Z,1.50
2018-08-19T07:50:33.824Z,1.50
2018-08-19T07:53:02.334Z,1.22
2018-08-19T07:55:30.950Z,1.27
2018-08-19T07:57:59.539Z,1.02
2018-08-19T08:00:33.287Z,1.55
2018-08-19T08:03:01.961Z,1.10
2018-08-19T08:05:35.805Z,1.27
2018-08-19T08:08:04.501Z,1.35
2018-08-19T08:10:33.133Z,1.47
2018-08-19T08:13:08.652Z,1.30
2018-08-19T08:15:43.514Z,1.35
2018-08-19T08:18:12.463Z,1.22
2018-08-19T08:20:41.087Z,1.32
2018-08-19T08:23:23.292Z,1.45
2018-08-19T08:25:51.975Z,1.05
2018-08-19T08:28:21.549Z,1.40
2018-08-19T08:30:50.273Z,1.22
2018-08-19T08:33:19.431Z,1.45
2018-08-19T08:35:53.072Z,1.30
2018-08-19T08:38:22.206Z,1.32
2018-08-19T08:40:51.308Z,1.45
2018-08-19T08:43:20.647Z,1.30
2018-08-19T08:45:49.346Z,1.40
2018-08-19T08:48:18.102Z,1.10
2018-08-19T08:50:46.678Z,1.05
2018-08-19T08:53:15.310Z,0.95
2018-08-19T08:55:43.983Z,1.57
2018-08-19T08:58:12.566Z,1.45
2018-08-19T09:00:41.199Z,1.80
2018-08-19T09:03:09.853Z,1.20
2018-08-19T09:05:38.694Z,1.67
2018-08-19T09:08:08.528Z,1.00
2018-08-19T09:10:37.216Z,1.45
2018-08-19T09:13:05.802Z,1.72
2018-08-19T09:15:34.551Z,1.30
2018-08-19T09:18:03.278Z,1.30
2018-08-19T09:20:31.958Z,1.55
2018-08-19T09:23:00.655Z,1.17
2018-08-19T09:25:29.296Z,1.60
2018-08-19T09:27:58.019Z,1.12
2018-08-19T09:30:46.743Z,1.00
2018-08-19T09:33:15.355Z,1.67
2018-08-19T09:35:44.421Z,1.17
2018-08-19T09:38:17.134Z,1.22
2018-08-19T09:40:46.217Z,1.07
2018-08-19T09:43:15.728Z,1.00
2018-08-19T09:45:44.828Z,1.10
2018-08-19T09:48:13.955Z,1.90
2018-08-19T09:50:43.215Z,1.57
2018-08-19T09:53:11.903Z,1.30
2018-08-19T09:55:41.619Z,1.20
2018-08-19T09:58:12.505Z,1.07
2018-08-19T10:00:46.458Z,1.30
2018-08-19T10:03:15.143Z,1.25
2018-08-19T10:05:43.828Z,0.88
2018-08-19T10:08:12.469Z,0.90
2018-08-19T10:10:40.967Z,1.20
2018-08-19T10:13:09.746Z,1.22
2018-08-19T10:15:38.550Z,1.77
2018-08-19T10:18:09.097Z,1.87
2018-08-19T10:20:37.599Z,1.35
2018-08-19T10:23:06.610Z,1.20
2018-08-19T10:25:35.256Z,0.98
2018-08-19T10:28:03.839Z,1.05
2018-08-19T10:30:32.546Z,1.07
2018-08-19T10:33:07.225Z,1.50
2018-08-19T10:35:36.186Z,1.32
2018-08-19T10:38:05.587Z,1.07
2018-08-19T10:40:34.287Z,1.30
2018-08-19T10:43:06.579Z,1.05
2018-08-19T10:45:38.431Z,1.02
2018-08-19T10:48:08.699Z,1.30
2018-08-19T10:50:37.293Z,0.85
2018-08-19T10:53:13.486Z,1.10
2018-08-19T10:55:42.113Z,1.02
2018-08-19T10:58:10.634Z,0.80
2018-08-19T11:00:39.285Z,1.20
2018-08-19T11:03:20.148Z,1.02
2018-08-19T11:05:50.779Z,0.80
2018-08-19T11:08:19.291Z,1.37
2018-08-19T11:10:47.931Z,1.27
2018-08-19T11:13:20.179Z,1.30
2018-08-19T11:15:58.106Z,1.30
2018-08-19T11:18:32.944Z,1.05
2018-08-19T11:21:06.107Z,1.20
2018-08-19T11:23:37.544Z,1.25
2018-08-19T11:26:06.762Z,1.20
2018-08-19T11:28:40.678Z,1.30
2018-08-19T11:31:19.996Z,1.07
2018-08-19T11:33:49.036Z,1.00
2018-08-19T11:36:17.705Z,1.00
2018-08-19T11:38:52.999Z,1.05
2018-08-19T11:41:21.667Z,1.20
2018-08-19T11:43:50.882Z,0.80
2018-08-19T11:46:19.532Z,1.17
2018-08-19T11:48:55.111Z,0.90
2018-08-19T11:51:37.695Z,1.15
2018-08-19T11:54:06.352Z,1.12
2018-08-19T11:56:34.987Z,1.15
2018-08-19T11:59:03.634Z,0.78
2018-08-19T12:01:32.310Z,1.17
2018-08-19T12:04:08.871Z,1.07
2018-08-19T12:06:37.522Z,1.20
2018-08-19T12:09:08.334Z,1.20
2018-08-19T12:11:38.211Z,1.20
2018-08-19T12:14:10.213Z,0.70
2018-08-19T12:16:45.047Z,1.10
2018-08-19T12:19:19.126Z,0.90
2018-08-19T12:21:54.380Z,1.00
2018-08-19T12:24:26.303Z,1.15
2018-08-19T12:26:56.907Z,1.20
2018-08-19T12:29:27.314Z,1.17
2018-08-19T12:32:07.599Z,1.10
2018-08-19T12:34:43.830Z,1.40
2018-08-19T12:37:13.561Z,1.00
2018-08-19T12:39:42.111Z,1.37
2018-08-19T12:42:10.764Z,0.93
2018-08-19T12:44:39.730Z,1.35
2018-08-19T12:47:16.479Z,3.15
2018-08-19T12:49:46.714Z,2.17
2018-08-19T12:52:18.800Z,1.12
2018-08-19T12:55:20.888Z,1.20
2018-08-19T12:57:53.627Z,1.50
2018-08-19T13:00:26.345Z,1.10
2018-08-19T13:02:55.174Z,0.90
2018-08-19T13:05:24.083Z,1.30
2018-08-19T13:07:53.002Z,1.27
2018-08-19T13:10:22.054Z,1.10
2018-08-19T13:12:57.738Z,1.42
2018-08-19T13:15:28.614Z,1.40
2018-08-19T13:17:57.203Z,1.12
2018-08-19T13:20:25.807Z,1.30
2018-08-19T13:23:00.332Z,1.60
2018-08-19T13:25:29.534Z,1.10
2018-08-19T13:27:58.415Z,1.40
2018-08-19T13:30:27.131Z,1.60
2018-08-19T13:32:55.782Z,1.07
2018-08-19T13:35:24.426Z,1.98
2018-08-19T13:37:52.993Z,1.10
2018-08-19T13:40:21.544Z,1.22
2018-08-19T13:42:50.145Z,1.27
2018-08-19T13:45:21.027Z,0.93
2018-08-19T13:47:51.990Z,1.27
2018-08-19T13:50:20.550Z,1.15
2018-08-19T13:52:49.114Z,1.50
2018-08-19T13:55:19.185Z,1.27
2018-08-19T13:57:48.303Z,1.00
2018-08-19T14:00:19.623Z,1.17
2018-08-19T14:02:49.756Z,1.00
2018-08-19T14:05:18.442Z,1.45
2018-08-19T14:07:47.082Z,1.25
2018-08-19T14:10:16.435Z,0.70
2018-08-19T14:12:45.078Z,0.95
2018-08-19T14:15:13.936Z,1.32
2018-08-19T14:17:42.611Z,1.50
2018-08-19T14:20:11.672Z,1.40
2018-08-19T14:22:40.226Z,1.20
2018-08-19T14:25:10.783Z,1.37
2018-08-19T14:27:39.617Z,1.10
2018-08-19T14:30:11.091Z,1.07
2018-08-19T14:32:42.447Z,1.47
2018-08-19T14:35:11.408Z,1.12
2018-08-19T14:37:40.783Z,0.90
2018-08-19T14:40:12.810Z,1.05
2018-08-19T14:42:41.456Z,1.02
2018-08-19T14:45:11.066Z,1.12
2018-08-19T14:47:40.408Z,1.07
2018-08-19T14:50:11.605Z,1.22
2018-08-19T14:52:40.352Z,1.17
2018-08-19T14:55:12.639Z,1.40
2018-08-19T14:57:42.686Z,1.50
2018-08-19T15:00:13.953Z,1.45
2018-08-19T15:02:43.614Z,1.25
2018-08-19T15:05:17.683Z,1.50
2018-08-19T15:07:47.997Z,1.67
2018-08-19T15:10:24.272Z,1.20
2018-08-19T15:12:53.900Z,1.02
2018-08-19T15:15:22.639Z,1.32
2018-08-19T15:17:57.651Z,1.17
2018-08-19T15:20:32.045Z,1.37
2018-08-19T15:23:12.327Z,1.15
2018-08-19T15:28:25.591Z,1.42
2018-08-19T15:30:56.520Z,1.32
2018-08-19T15:33:25.238Z,1.20
2018-08-19T15:35:54.912Z,1.10
2018-08-19T15:38:24.417Z,1.07
2018-08-19T15:40:54.238Z,1.30
2018-08-19T15:43:24.040Z,1.12
2018-08-19T15:45:56.489Z,1.55
2018-08-19T15:48:26.859Z,1.07
2018-08-19T15:51:00.132Z,1.05
2018-08-19T15:53:30.252Z,1.15
2018-08-19T15:55:58.874Z,1.27
2018-08-19T15:58:29.246Z,0.90
2018-08-19T16:00:59.898Z,1.12
2018-08-19T16:03:29.530Z,1.20
2018-08-19T16:06:00.232Z,1.25
2018-08-19T16:08:30.336Z,1.30
2018-08-19T16:10:59.161Z,1.40
2018-08-19T16:13:27.824Z,1.10
2018-08-19T16:15:56.319Z,1.62
2018-08-19T16:18:25.308Z,1.60
2018-08-19T16:20:58.053Z,1.30
2018-08-19T16:23:26.582Z,1.57
2018-08-19T16:25:55.247Z,4.12
2018-08-19T16:28:23.879Z,1.25
2018-08-19T16:30:52.514Z,1.00
2018-08-19T16:33:21.196Z,1.47
2018-08-19T16:35:49.872Z,0.95
2018-08-19T16:38:18.465Z,1.00
2018-08-19T16:40:46.975Z,1.15
2018-08-19T16:43:15.570Z,1.50
2018-08-19T16:45:44.320Z,1.22
2018-08-19T16:48:12.847Z,1.10
2018-08-19T16:50:41.415Z,1.50
2018-08-19T16:53:10.169Z,1.40
2018-08-19T16:55:39.465Z,1.20
2018-08-19T16:58:08.049Z,1.27
2018-08-19T17:00:36.688Z,1.30
2018-08-19T17:03:20.648Z,1.22
2018-08-19T17:05:49.263Z,1.60
2018-08-19T17:08:17.946Z,1.22
2018-08-19T17:10:46.554Z,1.20
2018-08-19T17:13:15.213Z,1.10
2018-08-19T17:15:43.797Z,1.07
2018-08-19T17:18:13.059Z,1.17
2018-08-19T17:20:42.054Z,1.20
2018-08-19T17:23:10.547Z,1.22
2018-08-19T17:25:39.712Z,5.80
2018-08-19T17:28:12.059Z,6.90
2018-08-19T17:30:40.627Z,0.98
2018-08-19T17:33:10.315Z,1.10
2018-08-19T17:35:40.572Z,1.10
2018-08-19T17:38:09.313Z,1.10
2018-08-19T17:40:38.247Z,1.27
2018-08-19T17:43:14.370Z,1.30
2018-08-19T17:45:43.792Z,1.55
2018-08-19T17:48:12.335Z,1.60
2018-08-19T17:50:41.058Z,1.52
2018-08-19T17:53:09.758Z,1.70
2018-08-19T17:55:39.861Z,1.20
2018-08-19T17:58:08.549Z,1.42
2018-08-19T18:00:37.962Z,1.50
2018-08-19T18:03:07.251Z,1.32
2018-08-19T18:05:35.892Z,1.20
2018-08-19T18:08:04.521Z,1.50
2018-08-19T18:10:33.075Z,1.27
2018-08-19T18:13:01.620Z,1.45
2018-08-19T18:15:45.171Z,1.10
2018-08-19T18:18:13.799Z,1.13
2018-08-19T18:20:42.484Z,1.35
2018-08-19T18:23:16.703Z,1.12
2018-08-19T18:25:48.678Z,1.05
2018-08-19T18:28:22.830Z,1.30
2018-08-19T18:30:58.964Z,1.57
2018-08-19T18:33:28.236Z,1.30
2018-08-19T18:35:56.758Z,1.82
2018-08-19T18:38:28.408Z,1.72
2018-08-19T18:40:56.904Z,2.17
2018-08-19T18:43:26.154Z,1.55
2018-08-19T18:45:54.773Z,1.90
2018-08-19T18:48:23.315Z,2.15
2018-08-19T18:50:55.200Z,2.50
2018-08-19T18:53:24.243Z,3.37
2018-08-19T18:55:52.829Z,3.85
2018-08-19T18:58:21.508Z,3.30
2018-08-19T19:00:55.486Z,3.10
2018-08-19T19:03:24.715Z,3.15
2018-08-19T19:05:55.069Z,2.58
2018-08-19T19:08:25.119Z,2.92
2018-08-19T19:11:07.536Z,2.50
2018-08-19T19:13:37.257Z,2.12
2018-08-19T19:16:07.653Z,2.10
2018-08-19T19:18:36.523Z,2.22
2018-08-19T19:21:06.477Z,2.17
2018-08-19T19:23:38.195Z,2.05
2018-08-19T19:26:08.309Z,1.60
2018-08-19T19:28:37.127Z,1.30
2018-08-19T19:31:11.210Z,1.15
2018-08-19T19:33:39.824Z,1.35
2018-08-19T19:36:13.699Z,1.20
2018-08-19T19:38:47.999Z,1.30
2018-08-19T19:41:16.901Z,1.00
2018-08-19T19:43:45.408Z,1.25
2018-08-19T19:46:14.178Z,0.95
2018-08-19T19:48:42.791Z,1.12
2018-08-19T19:51:11.430Z,1.00
2018-08-19T19:53:40.039Z,1.00
2018-08-19T19:56:23.764Z,1.65
2018-08-19T19:58:52.276Z,1.87
2018-08-19T20:01:21.706Z,1.47
2018-08-19T20:03:54.643Z,2.02
2018-08-19T20:06:24.169Z,3.05
2018-08-19T20:08:53.240Z,3.08
2018-08-19T20:11:29.102Z,3.12
2018-08-19T20:14:02.408Z,3.37
2018-08-19T20:16:31.663Z,3.20
2018-08-19T20:19:00.326Z,3.72
2018-08-19T20:21:30.247Z,3.72
2018-08-19T20:23:59.737Z,3.70
2018-08-19T20:26:29.390Z,3.55
2018-08-19T20:28:59.366Z,3.22
2018-08-19T20:31:28.036Z,4.03
2018-08-19T20:33:56.628Z,3.83
2018-08-19T20:36:25.302Z,3.83
2018-08-19T20:38:53.886Z,3.85
2018-08-19T20:41:22.588Z,3.87
2018-08-19T20:43:51.313Z,4.05
2018-08-19T20:46:19.983Z,3.87
2018-08-19T20:48:49.071Z,4.20
2018-08-19T20:51:18.086Z,4.42
2018-08-19T20:53:46.668Z,4.20
2018-08-19T20:56:15.196Z,4.33
2018-08-19T20:58:43.803Z,3.83
2018-08-19T21:01:18.153Z,3.43
2018-08-19T21:03:47.146Z,2.90
2018-08-19T21:06:15.686Z,2.45
2018-08-19T21:08:44.288Z,2.33
2018-08-19T21:11:12.997Z,2.30
2018-08-19T21:13:41.578Z,1.92
2018-08-19T21:16:10.258Z,1.95
2018-08-19T21:18:38.790Z,1.53
2018-08-19T21:21:07.432Z,2.10
2018-08-19T21:23:36.115Z,7.45
2018-08-19T21:26:04.800Z,14.10
2018-08-19T21:28:33.383Z,1.87
2018-08-19T21:31:02.043Z,1.65
2018-08-19T21:33:30.595Z,2.23
2018-08-19T21:35:59.200Z,1.97
2018-08-19T21:38:27.713Z,2.50
2018-08-19T21:40:58.142Z,3.17
2018-08-19T21:43:28.516Z,3.27
2018-08-19T21:45:57.310Z,4.03
2018-08-19T21:48:25.937Z,4.08
2018-08-19T21:50:54.623Z,4.67
2018-08-19T21:53:23.308Z,4.80
2018-08-19T21:55:52.966Z,5.05
2018-08-19T21:58:21.608Z,5.75
2018-08-19T22:00:56.043Z,6.08
2018-08-19T22:03:29.832Z,5.50
2018-08-19T22:05:58.470Z,4.78
2018-08-19T22:08:27.021Z,5.15
2018-08-19T22:10:55.623Z,4.90
2018-08-19T22:13:24.257Z,4.73
2018-08-19T22:15:52.882Z,4.45
2018-08-19T22:18:22.799Z,5.12
2018-08-19T22:21:04.447Z,5.40
2018-08-19T22:23:38.254Z,4.17
2018-08-19T22:26:07.247Z,4.08
2018-08-19T22:28:35.874Z,4.33
2018-08-19T22:31:16.900Z,5.13
2018-08-19T22:33:48.499Z,4.62
2018-08-19T22:36:17.327Z,5.40
2018-08-19T22:38:45.850Z,4.80
2018-08-19T22:41:14.559Z,5.22
2018-08-19T22:43:43.092Z,4.70
2018-08-19T22:46:11.720Z,4.92
2018-08-19T22:48:42.875Z,4.80
2018-08-19T22:51:12.695Z,4.30
2018-08-19T22:53:41.725Z,4.47
2018-08-19T22:56:10.362Z,4.60
2018-08-19T22:58:39.150Z,3.73
2018-08-19T23:01:08.235Z,3.70
2018-08-19T23:03:36.847Z,3.83
2018-08-19T23:06:05.356Z,4.62
2018-08-19T23:08:34.603Z,4.65
2018-08-19T23:11:04.160Z,4.12
2018-08-19T23:13:44.220Z,4.20
2018-08-19T23:16:13.558Z,4.40
2018-08-19T23:18:43.073Z,4.33
2018-08-19T23:21:11.962Z,4.30
2018-08-19T23:23:40.516Z,4.20
2018-08-19T23:26:09.002Z,4.17
2018-08-19T23:28:37.655Z,4.00
2018-08-19T23:31:06.341Z,4.17
2018-08-19T23:33:35.054Z,3.63
2018-08-19T23:36:04.599Z,3.22
2018-08-19T23:38:33.215Z,2.97
2018-08-19T23:41:02.822Z,3.70
2018-08-19T23:43:31.341Z,3.80
2018-08-19T23:45:59.919Z,3.22
2018-08-19T23:48:28.480Z,3.22
2018-08-19T23:50:57.780Z,2.90
2018-08-19T23:53:26.310Z,3.08
2018-08-19T23:55:54.935Z,2.72
2018-08-19T23:58:23.723Z,2.80
